Addyston, OH

2:18 PM EDT on April 25, 2015 (GMT -0400)
Miami Township | | Change Station
CLOSE
Current Station
Personal Weather Station
Location: Cincinnati, OH
Elevation: 817 ft
Nearby Weather Stations

Elev 817 ft 39.14 °N, 84.70 °W | Updated 3 seconds ago

Rain
Rain
47.3 °F
Feels Like 47 °F
N
0.9
Wind Variable Wind from East
Gusts 5.0 mph

Today
High -- | Low -- °F
--% Chance of Precip.
Yesterday
High -- | Low -- °F
Precip. -- in
6:48 AM 8:25 PM
Waxing Crescent, 48% visible
Pressure 29.64 in
Visibility 1.5 miles
Clouds Overcast 600 ft
Windchill 47 °F
Dew Point 46 °F
Humidity 96%
Rainfall 0.36 in
Snow Depth Not available.
UV 0.9 out of 12
Pollen 10.50 out of 12
Air Quality Not available.
Flu Activity Regional
METAR KCVG 251752Z 08012KT 1 1/2SM RA BR OVC006 09/08 A2964 RMK AO2 SFC VIS 2 SLP036 P0027 60048 T00890078 10100 20083 58030

More Conditions Fewer Conditions

Pressure 29.64 in
Visibility 1.5 miles
Clouds Overcast 600 ft
Windchill 47 °F
Dew Point 46 °F
Humidity 96%
Rainfall 0.36 in
Snow Depth Not available.
UV 0.9 out of 12
Pollen 10.50 out of 12
Air Quality Not available.
Flu Activity Regional
METAR KCVG 251752Z 08012KT 1 1/2SM RA BR OVC006 09/08 A2964 RMK AO2 SFC VIS 2 SLP036 P0027 60048 T00890078 10100 20083 58030

More Conditions Fewer Conditions

10-Day Weather Forecast

Almanac

Astronomy

Apr. 25, 2015 Rise Set
Actual Time
Civil Twilight
Nautical Twilight
Astronomical Twilight
Moon
Length of Visible Light
Length of Day
Tomorrow will be .
, % of the Moon is Illuminated

Today's Extremes

State Highs State Lows

Community

WunderPhotos

Upload Photos

1,816,763 photos uploaded!

WunderBlogs® & News

Nearby

Air Quality

  Air Quality AQ Index Pollutant
Not available.

Snow Depth

Station Depth Elevation

Earthquake Activity

City Distance Mag. Time & Date
Minimum magnitude displayed is 2.5.

Coastal Water Temperatures

Place Temperature

Stations

Nearby Weather Stations

Station Location Temp. Windchill Dew Point Humidity Wind Precip. Elev Updated Type